Time;durP1;ratioP1;P1;durP2;ratioP2;P2;SDS_P1;SDS_P2;PMS_P1;PMS_P2;Temp;Humidity;BMP_temperature;BMP_pressure;BME280_temperature;BME280_humidity;BME280_pressure;Samples;Min_cycle;Max_cycle;Signal;HPM_P1;HPM_P2
2022/03/04 00:01:51;;;;;;;17.40;12.43;;;2.90;99.90;;;;;;6207010;23;20055;-78
2022/03/04 00:04:16;;;;;;;19.70;13.32;;;2.90;99.90;;;;;;6208899;23;20043;-78
2022/03/04 00:06:42;;;;;;;19.77;13.15;;;2.80;99.90;;;;;;6209921;23;20016;-78
2022/03/04 00:09:08;;;;;;;22.02;13.48;;;2.80;99.90;;;;;;6209337;23;20475;-78
2022/03/04 00:11:34;;;;;;;18.90;13.00;;;2.80;99.90;;;;;;6208974;23;20456;-78
2022/03/04 00:14:01;;;;;;;18.85;12.75;;;2.80;99.90;;;;;;6208253;23;20021;-78
2022/03/04 00:16:26;;;;;;;19.48;13.25;;;2.70;99.90;;;;;;6183120;23;20021;-78
2022/03/04 00:19:06;;;;;;;20.13;13.18;;;2.70;99.90;;;;;;6208053;23;20318;-79
2022/03/04 00:21:39;;;;;;;19.92;13.45;;;2.70;99.90;;;;;;6183008;23;20052;-79
2022/03/04 00:24:06;;;;;;;18.45;13.07;;;2.70;99.90;;;;;;6182798;23;20371;-79
2022/03/04 00:26:32;;;;;;;20.20;13.15;;;2.60;99.90;;;;;;6182322;23;20032;-79
2022/03/04 00:28:58;;;;;;;19.17;13.10;;;2.60;99.90;;;;;;6181417;23;20345;-79
2022/03/04 00:31:24;;;;;;;23.08;13.18;;;2.50;99.90;;;;;;6182908;23;20100;-79
2022/03/04 00:33:50;;;;;;;22.95;14.05;;;2.50;99.90;;;;;;6205890;23;20071;-79
2022/03/04 00:36:16;;;;;;;22.90;13.35;;;2.50;99.90;;;;;;6209973;23;20048;-79
2022/03/04 00:38:41;;;;;;;20.88;13.18;;;2.50;99.90;;;;;;6182859;23;20337;-79
2022/03/04 00:41:07;;;;;;;19.83;12.52;;;2.40;99.90;;;;;;6181115;23;20023;-79
2022/03/04 00:43:33;;;;;;;21.17;13.52;;;2.50;99.90;;;;;;6181817;23;20075;-79
2022/03/04 00:45:59;;;;;;;21.70;13.48;;;2.40;99.90;;;;;;6208763;23;20017;-79
2022/03/04 00:48:25;;;;;;;22.08;13.90;;;2.40;99.90;;;;;;6209446;23;20021;-78
2022/03/04 00:50:50;;;;;;;24.70;14.07;;;2.40;99.90;;;;;;6209371;23;20436;-78
2022/03/04 00:53:16;;;;;;;22.50;14.95;;;2.30;99.90;;;;;;6182762;23;20027;-78
2022/03/04 00:55:41;;;;;;;22.83;14.27;;;2.30;99.90;;;;;;6182545;23;20048;-78
2022/03/04 00:58:08;;;;;;;22.92;15.15;;;2.30;99.90;;;;;;6181249;23;20048;-79
2022/03/04 01:00:35;;;;;;;21.67;14.18;;;2.30;99.90;;;;;;6207774;23;20040;-79
2022/03/04 01:03:02;;;;;;;23.33;14.57;;;2.30;99.90;;;;;;6206104;23;20020;-79
2022/03/04 01:05:29;;;;;;;22.27;14.43;;;2.30;99.90;;;;;;6182351;23;20016;-79
2022/03/04 01:07:55;;;;;;;22.27;14.75;;;2.20;99.90;;;;;;6181583;23;20025;-79
2022/03/04 01:10:21;;;;;;;23.25;14.52;;;2.20;99.90;;;;;;6182100;23;20079;-79
2022/03/04 01:12:46;;;;;;;21.10;14.27;;;2.10;99.90;;;;;;6208845;23;20845;-79
2022/03/04 01:15:12;;;;;;;22.00;13.88;;;2.20;99.90;;;;;;6207038;23;20487;-79
2022/03/04 01:17:38;;;;;;;23.30;15.32;;;2.20;99.90;;;;;;6181447;23;20012;-79
2022/03/04 01:20:05;;;;;;;25.15;15.00;;;2.20;99.90;;;;;;6181512;23;20116;-78
2022/03/04 01:22:31;;;;;;;21.80;13.85;;;2.20;99.90;;;;;;6182670;23;20456;-79
2022/03/04 01:24:56;;;;;;;26.45;15.10;;;2.10;99.90;;;;;;6181367;23;20025;-78
2022/03/04 01:27:22;;;;;;;22.63;14.32;;;2.10;99.90;;;;;;6182646;23;20021;-78
2022/03/04 01:29:49;;;;;;;25.38;15.40;;;2.10;99.90;;;;;;6181635;23;20040;-79
2022/03/04 01:32:14;;;;;;;24.85;15.82;;;2.00;99.90;;;;;;6182368;23;20012;-78
2022/03/04 01:34:40;;;;;;;23.30;15.00;;;2.00;99.90;;;;;;6181274;23;20025;-79
2022/03/04 01:37:07;;;;;;;22.42;14.90;;;1.90;99.90;;;;;;6180920;23;20017;-79
2022/03/04 01:39:33;;;;;;;25.55;15.25;;;2.00;99.90;;;;;;6208916;23;20013;-79
2022/03/04 01:41:58;;;;;;;23.60;15.82;;;1.90;99.90;;;;;;6179255;23;20452;-78
2022/03/04 01:44:24;;;;;;;22.88;15.40;;;1.90;99.90;;;;;;6205670;23;20056;-78
2022/03/04 01:46:49;;;;;;;24.73;15.60;;;1.90;99.90;;;;;;6180928;23;20139;-78
2022/03/04 01:49:16;;;;;;;24.45;15.95;;;1.80;99.90;;;;;;6181467;23;20024;-79
2022/03/04 01:51:42;;;;;;;25.17;15.70;;;1.80;99.90;;;;;;6208876;23;20013;-78
2022/03/04 01:54:07;;;;;;;26.35;16.40;;;1.80;99.90;;;;;;6180567;23;20039;-78
2022/03/04 01:56:33;;;;;;;27.20;16.95;;;1.70;99.90;;;;;;6207468;23;20029;-78
2022/03/04 01:58:59;;;;;;;27.08;17.40;;;1.70;99.90;;;;;;6181768;23;20035;-78
2022/03/04 02:01:25;;;;;;;25.45;15.68;;;1.70;99.90;;;;;;6181665;23;20630;-79
2022/03/04 02:03:50;;;;;;;27.75;16.92;;;1.60;99.90;;;;;;6179927;23;20323;-79
2022/03/04 02:06:16;;;;;;;26.63;17.38;;;1.60;99.90;;;;;;6181897;23;20019;-78
2022/03/04 02:08:42;;;;;;;29.95;18.48;;;1.60;99.90;;;;;;6180748;23;20092;-79
2022/03/04 02:11:08;;;;;;;28.25;17.02;;;1.60;99.90;;;;;;6180872;23;20025;-79
2022/03/04 02:13:35;;;;;;;28.92;18.30;;;1.50;99.90;;;;;;6181326;23;20020;-78
2022/03/04 02:16:00;;;;;;;28.65;17.65;;;1.50;99.90;;;;;;6181550;23;20017;-79
2022/03/04 02:18:27;;;;;;;29.83;18.30;;;1.50;99.90;;;;;;6207680;23;20095;-79
2022/03/04 02:20:53;;;;;;;27.15;17.67;;;1.50;99.90;;;;;;6180944;23;20016;-79
2022/03/04 02:23:20;;;;;;;28.20;18.35;;;1.50;99.90;;;;;;6182179;23;20100;-79
2022/03/04 02:25:49;;;;;;;28.35;19.05;;;1.40;99.90;;;;;;6206750;23;20013;-78
2022/03/04 02:28:16;;;;;;;31.13;19.98;;;1.40;99.90;;;;;;6181313;23;20031;-79
2022/03/04 02:30:42;;;;;;;30.83;19.37;;;1.40;99.90;;;;;;6208377;23;20449;-78
2022/03/04 02:33:08;;;;;;;29.58;19.48;;;1.40;99.90;;;;;;6181099;23;20031;-79
2022/03/04 02:35:35;;;;;;;30.13;18.67;;;1.40;99.90;;;;;;6180305;23;20399;-78
2022/03/04 02:38:02;;;;;;;29.37;18.60;;;1.30;99.90;;;;;;6206951;23;20340;-77
2022/03/04 02:40:28;;;;;;;30.42;19.10;;;1.30;99.90;;;;;;6183333;23;20059;-78
2022/03/04 02:42:54;;;;;;;28.58;19.17;;;1.30;99.90;;;;;;6181570;23;20035;-78
2022/03/04 02:45:19;;;;;;;29.02;19.20;;;1.30;99.90;;;;;;6208272;23;20063;-78
2022/03/04 02:47:45;;;;;;;33.05;19.80;;;1.30;99.90;;;;;;6207065;23;20472;-78
2022/03/04 02:50:11;;;;;;;30.00;19.77;;;1.30;99.90;;;;;;6178940;23;20023;-78
2022/03/04 02:52:37;;;;;;;31.40;19.48;;;1.20;99.90;;;;;;6182119;23;20056;-78
2022/03/04 02:55:03;;;;;;;28.45;18.58;;;1.20;99.90;;;;;;6181860;23;20391;-78
2022/03/04 02:57:29;;;;;;;34.50;21.70;;;1.20;99.90;;;;;;6183406;23;20063;-78
2022/03/04 02:59:54;;;;;;;33.42;20.75;;;1.20;99.90;;;;;;6181689;23;20020;-78
2022/03/04 03:02:20;;;;;;;30.92;21.00;;;1.10;99.90;;;;;;6184280;23;20593;-77
2022/03/04 03:04:45;;;;;;;31.98;20.30;;;1.10;99.90;;;;;;6183684;23;20019;-79
2022/03/04 03:07:11;;;;;;;33.53;21.48;;;1.10;99.90;;;;;;6209794;23;20322;-79
2022/03/04 03:09:37;;;;;;;33.53;21.33;;;1.10;99.90;;;;;;6182469;23;20025;-79
2022/03/04 03:12:03;;;;;;;32.30;21.20;;;1.10;99.90;;;;;;6183342;23;20025;-78
2022/03/04 03:14:28;;;;;;;33.00;20.70;;;1.10;99.90;;;;;;6209996;23;20016;-77
2022/03/04 03:16:54;;;;;;;32.88;21.00;;;1.10;99.90;;;;;;6183536;23;20016;-77
2022/03/04 03:19:20;;;;;;;33.13;21.52;;;1.10;99.90;;;;;;6211313;23;20131;-77
2022/03/04 03:21:45;;;;;;;32.13;22.33;;;1.10;99.90;;;;;;6209109;23;20012;-77
2022/03/04 03:24:11;;;;;;;33.47;21.00;;;1.10;99.90;;;;;;6210585;23;20067;-79
2022/03/04 03:26:36;;;;;;;31.02;20.52;;;1.10;99.90;;;;;;6184203;23;20056;-79
2022/03/04 03:29:02;;;;;;;33.90;21.40;;;1.10;99.90;;;;;;6182346;23;20866;-79
2022/03/04 03:31:28;;;;;;;33.63;21.58;;;1.10;99.90;;;;;;6183741;23;20043;-79
2022/03/04 03:33:53;;;;;;;33.75;22.52;;;1.10;99.90;;;;;;6210426;23;20087;-78
2022/03/04 03:36:20;;;;;;;32.83;22.65;;;1.10;99.90;;;;;;6183684;23;20020;-78
2022/03/04 03:38:46;;;;;;;30.95;21.33;;;1.10;99.90;;;;;;6183346;23;20016;-78
2022/03/04 03:41:11;;;;;;;32.42;21.27;;;1.10;99.90;;;;;;6210893;23;20023;-78
2022/03/04 03:43:38;;;;;;;31.20;21.50;;;1.00;99.90;;;;;;6210116;23;20372;-78
2022/03/04 03:46:04;;;;;;;32.38;21.35;;;1.00;99.90;;;;;;6182748;23;20027;-78
2022/03/04 03:48:30;;;;;;;38.08;22.58;;;1.00;99.90;;;;;;6183946;23;20013;-78
2022/03/04 03:50:55;;;;;;;33.25;21.27;;;1.00;99.90;;;;;;6181971;23;20056;-78
2022/03/04 03:53:21;;;;;;;32.97;21.27;;;1.00;99.90;;;;;;6183885;23;20071;-78
2022/03/04 03:55:46;;;;;;;33.28;22.02;;;0.90;99.90;;;;;;6182340;23;20032;-78
2022/03/04 03:58:12;;;;;;;36.38;23.08;;;1.00;99.90;;;;;;6210519;23;20016;-79
2022/03/04 04:00:38;;;;;;;34.10;22.02;;;0.90;99.90;;;;;;6210301;23;20113;-79
2022/03/04 04:03:03;;;;;;;33.40;22.65;;;0.90;99.90;;;;;;6208798;23;20017;-78
2022/03/04 04:05:29;;;;;;;33.80;21.85;;;1.00;99.90;;;;;;6183128;23;20075;-79
2022/03/04 04:07:54;;;;;;;34.80;22.65;;;1.00;99.90;;;;;;6182969;23;20017;-79
2022/03/04 04:10:20;;;;;;;31.55;21.13;;;1.00;99.90;;;;;;6183340;23;20021;-79
2022/03/04 04:12:46;;;;;;;34.63;23.40;;;1.00;99.90;;;;;;6183316;23;20024;-79
2022/03/04 04:15:12;;;;;;;35.42;22.60;;;0.90;99.90;;;;;;6210128;23;20039;-79
2022/03/04 04:17:37;;;;;;;34.72;23.05;;;1.00;99.90;;;;;;6183109;23;20499;-78
2022/03/04 04:20:03;;;;;;;33.45;21.67;;;1.00;99.90;;;;;;6209754;23;20537;-79
2022/03/04 04:22:29;;;;;;;33.58;22.50;;;1.00;99.90;;;;;;6183506;23;20021;-78
2022/03/04 04:24:54;;;;;;;34.28;23.00;;;1.00;99.90;;;;;;6182639;23;20017;-78
2022/03/04 04:27:20;;;;;;;34.38;22.70;;;1.00;99.90;;;;;;6209960;23;20023;-79
2022/03/04 04:29:46;;;;;;;36.53;23.58;;;0.90;99.90;;;;;;6184410;23;20023;-78
2022/03/04 04:32:11;;;;;;;37.00;23.48;;;0.90;99.90;;;;;;6183769;23;20021;-78
2022/03/04 04:34:37;;;;;;;32.58;22.70;;;0.90;99.90;;;;;;6183405;23;20028;-78
2022/03/04 04:37:03;;;;;;;35.50;23.73;;;0.90;99.90;;;;;;6182976;23;20016;-78
2022/03/04 04:39:28;;;;;;;36.88;23.60;;;0.90;99.90;;;;;;6182920;23;20016;-79
2022/03/04 04:41:54;;;;;;;36.80;24.42;;;0.90;99.90;;;;;;6182589;23;20012;-78
2022/03/04 04:44:20;;;;;;;34.72;23.80;;;0.90;99.90;;;;;;6210120;23;20025;-78
2022/03/04 04:46:45;;;;;;;34.95;22.73;;;0.90;99.90;;;;;;6208905;23;20043;-78
2022/03/04 04:49:11;;;;;;;34.85;23.10;;;0.90;99.90;;;;;;6182897;23;20047;-78
2022/03/04 04:51:37;;;;;;;36.97;23.85;;;0.90;99.90;;;;;;6209964;23;20021;-78
2022/03/04 04:54:03;;;;;;;36.00;24.02;;;0.90;99.90;;;;;;6182262;23;20099;-78
2022/03/04 04:56:29;;;;;;;34.55;23.85;;;0.90;99.90;;;;;;6182756;23;20040;-78
2022/03/04 04:58:55;;;;;;;35.95;24.02;;;0.90;99.90;;;;;;6209444;23;20072;-78
2022/03/04 05:01:20;;;;;;;38.00;24.35;;;0.90;99.90;;;;;;6182607;23;20460;-79
2022/03/04 05:03:46;;;;;;;37.67;25.65;;;0.80;99.90;;;;;;6209215;23;20424;-78
2022/03/04 05:06:11;;;;;;;38.15;24.20;;;0.80;99.90;;;;;;6182390;23;20091;-79
2022/03/04 05:08:37;;;;;;;35.38;23.33;;;0.90;99.90;;;;;;6209548;23;20087;-78
2022/03/04 05:11:03;;;;;;;36.25;23.90;;;0.90;99.90;;;;;;6182746;23;20016;-78
2022/03/04 05:13:29;;;;;;;38.33;24.63;;;0.90;99.90;;;;;;6209700;23;20025;-79
2022/03/04 05:15:55;;;;;;;35.83;24.52;;;0.90;99.90;;;;;;6208920;23;20023;-78
2022/03/04 05:18:20;;;;;;;38.88;23.60;;;0.90;99.90;;;;;;6183390;23;20036;-78
2022/03/04 05:20:46;;;;;;;39.95;25.25;;;0.90;99.90;;;;;;6208847;23;20013;-78
2022/03/04 05:23:58;;;;;;;35.67;23.70;;;0.90;99.90;;;;;;6209339;23;20024;-78
2022/03/04 05:25:57;;;;;;;38.30;24.77;;;0.80;99.90;;;;;;6182079;23;20040;-78
2022/03/04 05:28:23;;;;;;;37.75;24.27;;;0.80;99.90;;;;;;6209177;23;20088;-78
2022/03/04 05:30:54;;;;;;;42.70;26.48;;;0.80;99.90;;;;;;6208855;23;20463;-78
2022/03/04 05:33:20;;;;;;;43.42;25.10;;;0.80;99.90;;;;;;6183097;23;20096;-79
2022/03/04 05:35:45;;;;;;;39.88;26.73;;;0.80;99.90;;;;;;6181584;23;20040;-78
2022/03/04 05:38:11;;;;;;;44.33;26.90;;;0.80;99.90;;;;;;6209530;23;20021;-78
2022/03/04 05:40:36;;;;;;;38.35;24.95;;;0.80;99.90;;;;;;6209441;23;20012;-78
2022/03/04 05:43:02;;;;;;;40.72;26.13;;;0.80;99.90;;;;;;6181874;23;20496;-78
2022/03/04 05:45:28;;;;;;;40.55;25.50;;;0.70;99.90;;;;;;6182908;23;20052;-78
2022/03/04 05:47:53;;;;;;;40.22;25.08;;;0.70;99.90;;;;;;6182447;23;20328;-78
2022/03/04 05:50:19;;;;;;;40.00;25.52;;;0.70;99.90;;;;;;6182760;23;20020;-78
2022/03/04 05:52:44;;;;;;;39.75;25.42;;;0.70;99.90;;;;;;6209245;23;20056;-78
2022/03/04 05:55:10;;;;;;;42.75;26.45;;;0.70;99.90;;;;;;6182173;23;20009;-78
2022/03/04 05:57:35;;;;;;;40.85;26.45;;;0.70;99.90;;;;;;6182390;23;20024;-79
2022/03/04 06:00:01;;;;;;;40.90;26.73;;;0.70;99.90;;;;;;6208648;23;20078;-78
2022/03/04 06:02:28;;;;;;;42.38;28.20;;;0.70;99.90;;;;;;6183071;23;20056;-78
2022/03/04 06:04:54;;;;;;;43.28;28.30;;;0.70;99.90;;;;;;6181776;23;20017;-79
2022/03/04 06:07:19;;;;;;;41.40;26.92;;;0.70;99.90;;;;;;6210169;23;20009;-78
2022/03/04 06:09:45;;;;;;;40.58;26.02;;;0.70;99.90;;;;;;6181337;23;20024;-78
2022/03/04 06:12:11;;;;;;;43.42;26.13;;;0.60;99.90;;;;;;6182559;23;20017;-79
2022/03/04 06:14:36;;;;;;;43.83;26.73;;;0.60;99.90;;;;;;6182401;23;20024;-79
2022/03/04 06:17:02;;;;;;;40.63;25.15;;;0.60;99.90;;;;;;6181271;23;20123;-79
2022/03/04 06:19:28;;;;;;;42.72;26.30;;;0.60;99.90;;;;;;6182379;23;20069;-79
2022/03/04 06:21:54;;;;;;;43.20;26.23;;;0.60;99.90;;;;;;6183665;23;20013;-79
2022/03/04 06:24:20;;;;;;;41.60;26.02;;;0.60;99.90;;;;;;6182066;23;20044;-79
2022/03/04 06:26:45;;;;;;;42.90;26.80;;;0.60;99.90;;;;;;6181710;23;20025;-79
2022/03/04 06:29:11;;;;;;;47.67;27.77;;;0.60;99.90;;;;;;6182262;23;20017;-81
2022/03/04 06:31:36;;;;;;;45.30;28.58;;;0.60;99.90;;;;;;6181493;23;20047;-78
2022/03/04 06:34:02;;;;;;;44.10;27.92;;;0.70;99.90;;;;;;6177450;23;20024;-78
2022/03/04 06:36:28;;;;;;;45.20;28.13;;;0.70;99.90;;;;;;6181721;23;20016;-79
2022/03/04 06:38:54;;;;;;;45.75;27.55;;;0.70;99.90;;;;;;6181261;23;20357;-79
2022/03/04 06:41:19;;;;;;;48.40;30.58;;;0.70;99.90;;;;;;6208686;23;20016;-78
2022/03/04 06:43:45;;;;;;;45.63;28.08;;;0.70;99.90;;;;;;6180491;23;20017;-79
2022/03/04 06:46:11;;;;;;;46.03;27.67;;;0.70;99.90;;;;;;6180689;23;20031;-78
2022/03/04 06:48:37;;;;;;;40.45;25.55;;;0.70;99.90;;;;;;6181709;23;20020;-78
2022/03/04 06:51:03;;;;;;;45.60;27.67;;;0.70;99.90;;;;;;6181115;23;20052;-78
2022/03/04 06:53:29;;;;;;;46.88;28.75;;;0.70;99.90;;;;;;6207603;23;20051;-77
2022/03/04 06:55:54;;;;;;;44.63;27.88;;;0.70;99.90;;;;;;6207915;23;20017;-77
2022/03/04 06:58:20;;;;;;;47.47;29.52;;;0.70;99.90;;;;;;6208850;23;20328;-78
2022/03/04 07:00:47;;;;;;;49.25;29.20;;;0.70;99.90;;;;;;6180728;23;20030;-78
2022/03/04 07:03:13;;;;;;;48.22;28.92;;;0.70;99.90;;;;;;6181238;23;20017;-78
2022/03/04 07:05:39;;;;;;;47.22;29.05;;;0.70;99.90;;;;;;6208851;23;20021;-77
2022/03/04 07:08:11;;;;;;;49.35;29.80;;;0.70;99.90;;;;;;6179860;23;20468;-78
2022/03/04 07:10:37;;;;;;;51.63;31.42;;;0.70;99.90;;;;;;6180961;23;20025;-77
2022/03/04 07:13:03;;;;;;;56.08;33.63;;;0.70;99.90;;;;;;6180434;23;20104;-77
2022/03/04 07:15:29;;;;;;;50.15;31.10;;;0.70;99.90;;;;;;6181625;23;20048;-77
2022/03/04 07:17:54;;;;;;;53.78;30.23;;;0.80;99.90;;;;;;6180983;23;20020;-77
2022/03/04 07:20:20;;;;;;;55.22;30.63;;;0.80;99.90;;;;;;6207924;23;20017;-77
2022/03/04 07:22:46;;;;;;;52.30;31.10;;;0.80;99.90;;;;;;6181272;23;20027;-77
2022/03/04 07:25:13;;;;;;;57.85;32.88;;;0.80;99.90;;;;;;6181952;23;20019;-77
2022/03/04 07:27:39;;;;;;;51.75;30.48;;;0.80;99.90;;;;;;6181264;23;20024;-77
2022/03/04 07:30:10;;;;;;;58.20;32.45;;;0.80;99.90;;;;;;6180432;23;20471;-77
2022/03/04 07:32:38;;;;;;;51.72;31.13;;;0.80;99.90;;;;;;6180514;23;20029;-77
2022/03/04 07:35:05;;;;;;;55.38;31.25;;;0.80;99.90;;;;;;6207257;23;20047;-77
2022/03/04 07:37:30;;;;;;;59.05;33.00;;;0.80;99.90;;;;;;6181435;23;20113;-77
2022/03/04 07:39:56;;;;;;;57.85;32.30;;;0.80;99.90;;;;;;6182841;23;20061;-77
2022/03/04 07:42:22;;;;;;;55.53;31.67;;;0.80;99.90;;;;;;6209475;23;20051;-77
2022/03/04 07:44:49;;;;;;;53.92;32.38;;;0.90;99.90;;;;;;6182550;23;20044;-77
2022/03/04 07:47:14;;;;;;;56.63;31.55;;;0.90;99.90;;;;;;6210522;23;20024;-77
2022/03/04 07:49:42;;;;;;;53.40;31.95;;;0.90;99.90;;;;;;6209459;23;20105;-77
2022/03/04 07:52:09;;;;;;;57.25;33.28;;;1.00;99.90;;;;;;6183078;23;20033;-77
2022/03/04 07:54:34;;;;;;;55.72;32.13;;;1.10;99.90;;;;;;6183184;23;20377;-77
2022/03/04 07:57:00;;;;;;;52.63;30.90;;;1.10;99.90;;;;;;6208741;23;20044;-77
2022/03/04 07:59:25;;;;;;;54.55;31.10;;;1.10;99.90;;;;;;6209228;23;20021;-77
2022/03/04 08:01:51;;;;;;;54.40;30.25;;;1.10;99.90;;;;;;6180717;23;20063;-76
2022/03/04 08:04:17;;;;;;;51.72;30.02;;;1.20;99.90;;;;;;6208892;23;20021;-76
2022/03/04 08:06:42;;;;;;;54.15;31.23;;;1.20;99.90;;;;;;6183733;23;20378;-76
2022/03/04 08:09:08;;;;;;;50.03;29.50;;;1.20;99.90;;;;;;6182255;23;20074;-77
2022/03/04 08:11:34;;;;;;;55.05;31.77;;;1.20;99.90;;;;;;6209890;23;20024;-77
2022/03/04 08:14:00;;;;;;;53.75;30.00;;;1.30;99.90;;;;;;6184083;23;20019;-76
2022/03/04 08:16:25;;;;;;;50.50;29.98;;;1.30;99.90;;;;;;6209395;23;20024;-78
2022/03/04 08:18:52;;;;;;;51.08;29.40;;;1.40;99.90;;;;;;6182104;23;20078;-88
2022/03/04 08:21:18;;;;;;;51.45;30.42;;;1.40;99.90;;;;;;6181969;23;20119;-81
2022/03/04 08:23:43;;;;;;;58.60;33.97;;;1.40;99.90;;;;;;6182373;23;20017;-80
2022/03/04 08:26:09;;;;;;;52.70;30.92;;;1.50;99.90;;;;;;6209205;23;20453;-79
2022/03/04 08:28:35;;;;;;;53.72;30.98;;;1.50;99.90;;;;;;6183690;23;20017;-81
2022/03/04 08:31:03;;;;;;;50.80;29.98;;;1.50;99.90;;;;;;6182185;23;20469;-80
2022/03/04 08:33:29;;;;;;;50.30;30.10;;;1.60;99.90;;;;;;6183263;23;20544;-83
2022/03/04 08:35:54;;;;;;;49.30;29.17;;;1.60;99.90;;;;;;6182903;23;20095;-78
2022/03/04 08:38:20;;;;;;;50.08;28.83;;;1.70;99.90;;;;;;6183191;23;20021;-79
2022/03/04 08:40:46;;;;;;;49.90;29.73;;;1.70;99.90;;;;;;6182480;23;20028;-81
2022/03/04 08:43:12;;;;;;;49.50;29.20;;;1.80;99.90;;;;;;6182388;23;20500;-83
2022/03/04 08:45:38;;;;;;;52.03;30.08;;;1.80;99.90;;;;;;6210084;23;20025;-83
2022/03/04 08:48:06;;;;;;;53.50;31.00;;;1.80;99.90;;;;;;6209259;23;20100;-86
2022/03/04 08:50:34;;;;;;;52.58;31.65;;;1.80;99.90;;;;;;6183528;23;20020;-83
2022/03/04 08:53:01;;;;;;;57.28;34.28;;;1.80;99.90;;;;;;6209080;23;20020;-85
2022/03/04 08:55:30;;;;;;;54.33;32.33;;;1.80;99.90;;;;;;6183521;23;20396;-86
2022/03/04 08:57:56;;;;;;;53.20;31.77;;;1.80;99.90;;;;;;6183126;23;20017;-85
2022/03/04 09:00:23;;;;;;;52.77;34.17;;;1.80;99.90;;;;;;6182575;23;20020;-84
2022/03/04 09:02:49;;;;;;;46.72;29.00;;;2.00;99.90;;;;;;6209406;23;20322;-85
2022/03/04 09:05:15;;;;;;;48.13;29.83;;;2.10;99.90;;;;;;6210130;23;20040;-82
2022/03/04 09:07:41;;;;;;;50.53;32.20;;;2.20;99.90;;;;;;6181814;23;20028;-80
2022/03/04 09:10:08;;;;;;;49.45;31.73;;;2.30;99.90;;;;;;6182381;23;20695;-81
2022/03/04 09:12:34;;;;;;;46.22;30.45;;;2.40;99.90;;;;;;6182734;23;20067;-80
2022/03/04 09:15:00;;;;;;;52.92;35.58;;;2.40;99.90;;;;;;6181571;23;20580;-80
2022/03/04 09:17:26;;;;;;;50.38;35.65;;;2.50;99.90;;;;;;6181217;23;20096;-78
2022/03/04 09:19:51;;;;;;;49.13;30.65;;;2.40;99.90;;;;;;6207720;23;20029;-80
2022/03/04 09:22:17;;;;;;;46.92;30.05;;;2.50;99.90;;;;;;6210159;23;20344;-84
2022/03/04 09:24:43;;;;;;;42.80;30.75;;;2.60;99.90;;;;;;6209864;23;20016;-79
2022/03/04 09:27:10;;;;;;;45.75;29.38;;;2.60;99.90;;;;;;6210412;23;20016;-79
2022/03/04 09:29:35;;;;;;;43.90;31.50;;;2.70;99.90;;;;;;6184635;23;20059;-79
2022/03/04 09:32:02;;;;;;;43.00;32.08;;;2.70;99.90;;;;;;6183954;23;20028;-80
2022/03/04 09:34:27;;;;;;;43.20;30.05;;;2.80;99.90;;;;;;6183787;23;20025;-78
2022/03/04 09:36:53;;;;;;;46.92;31.05;;;2.80;99.90;;;;;;6210356;23;20027;-77
2022/03/04 09:39:19;;;;;;;42.10;29.73;;;2.80;99.90;;;;;;6184219;23;20025;-81
2022/03/04 09:41:45;;;;;;;44.58;33.47;;;2.80;99.90;;;;;;6209786;23;20151;-81
2022/03/04 09:44:16;;;;;;;45.07;28.70;;;2.80;99.90;;;;;;6183914;23;20017;-80
2022/03/04 09:46:42;;;;;;;42.88;30.45;;;2.90;99.90;;;;;;6184432;23;20025;-80
2022/03/04 09:49:09;;;;;;;40.60;28.40;;;3.00;99.90;;;;;;6183802;23;20466;-75
2022/03/04 09:51:35;;;;;;;43.25;30.48;;;3.10;99.90;;;;;;6184681;23;20027;-78
2022/03/04 09:54:01;;;;;;;38.58;27.92;;;3.20;99.90;;;;;;6183754;23;20068;-78
2022/03/04 09:56:27;;;;;;;39.25;29.75;;;3.20;99.90;;;;;;6183639;23;20029;-78
2022/03/04 09:58:54;;;;;;;40.00;30.27;;;3.30;99.90;;;;;;6183678;23;20092;-77
2022/03/04 10:01:19;;;;;;;38.72;29.20;;;3.40;99.90;;;;;;6184767;23;20303;-75
2022/03/04 10:03:47;;;;;;;37.00;28.17;;;3.50;99.90;;;;;;6185180;23;20020;-77
2022/03/04 10:06:14;;;;;;;41.35;29.63;;;3.50;99.90;;;;;;6183850;23;20071;-80
2022/03/04 10:08:42;;;;;;;37.47;29.48;;;3.60;99.90;;;;;;6183502;23;20012;-77
2022/03/04 10:11:08;;;;;;;36.50;27.50;;;3.70;99.90;;;;;;6184183;23;20021;-80
2022/03/04 10:13:44;;;;;;;37.72;29.73;;;3.70;99.90;;;;;;6184013;23;20048;-79
2022/03/04 10:16:22;;;;;;;37.55;28.80;;;3.70;99.90;;;;;;6181607;23;20020;-80
2022/03/04 10:19:04;;;;;;;39.92;29.17;;;3.70;99.90;;;;;;6182716;23;20020;-81
2022/03/04 10:21:48;;;;;;;36.05;27.33;;;3.80;99.90;;;;;;6183970;23;20443;-79
2022/03/04 10:24:15;;;;;;;35.00;27.15;;;3.80;99.90;;;;;;6183790;23;20036;-78
2022/03/04 10:26:41;;;;;;;35.00;26.48;;;3.90;99.90;;;;;;6210039;23;20082;-77
2022/03/04 10:29:24;;;;;;;30.70;25.33;;;3.90;99.90;;;;;;6209300;23;20031;-77
2022/03/04 10:32:12;;;;;;;31.52;24.15;;;4.00;99.90;;;;;;6181929;23;20016;-76
2022/03/04 10:34:44;;;;;;;30.15;23.23;;;4.10;99.90;;;;;;6210841;23;20100;-78
2022/03/04 10:37:11;;;;;;;28.90;23.10;;;4.10;99.90;;;;;;6183061;23;20020;-77
2022/03/04 10:39:51;;;;;;;31.53;24.23;;;4.00;99.90;;;;;;6183920;23;20676;-79
2022/03/04 10:42:17;;;;;;;31.77;23.75;;;4.10;99.90;;;;;;6184067;23;20055;-77
2022/03/04 10:44:43;;;;;;;33.63;25.40;;;4.20;99.90;;;;;;6208613;23;20013;-76
2022/03/04 10:47:09;;;;;;;31.83;24.02;;;4.20;99.90;;;;;;6209819;23;20544;-74
2022/03/04 10:49:34;;;;;;;30.98;24.00;;;4.30;99.90;;;;;;6210981;23;20017;-72
2022/03/04 10:52:08;;;;;;;30.65;24.17;;;4.40;99.90;;;;;;6183245;23;20495;-75
2022/03/04 10:54:33;;;;;;;30.40;23.67;;;4.50;99.90;;;;;;6182684;23;20021;-76
2022/03/04 10:57:03;;;;;;;31.95;23.67;;;4.50;99.90;;;;;;6209285;23;20024;-75
2022/03/04 10:59:29;;;;;;;28.80;21.85;;;4.60;99.90;;;;;;6208260;23;20348;-75
2022/03/04 11:01:55;;;;;;;29.77;22.73;;;4.60;99.90;;;;;;6209793;23;20051;-75
2022/03/04 11:04:22;;;;;;;28.75;22.40;;;4.70;99.90;;;;;;6210870;23;20027;-75
2022/03/04 11:06:49;;;;;;;25.08;20.15;;;4.70;99.90;;;;;;6182212;23;20031;-75
2022/03/04 11:09:17;;;;;;;26.00;20.15;;;4.90;99.90;;;;;;6184073;23;20020;-76
2022/03/04 11:11:43;;;;;;;26.58;20.13;;;5.00;99.90;;;;;;6183213;23;20048;-76
2022/03/04 11:14:12;;;;;;;25.50;19.38;;;5.10;99.90;;;;;;6210276;23;20017;-74
2022/03/04 11:16:40;;;;;;;24.80;19.98;;;5.10;99.90;;;;;;6211546;23;20065;-77
2022/03/04 11:19:09;;;;;;;27.17;20.88;;;5.20;99.90;;;;;;6211049;23;20485;-84
2022/03/04 11:21:35;;;;;;;24.05;18.63;;;5.30;99.90;;;;;;6185405;23;20368;-79
2022/03/04 11:24:01;;;;;;;27.05;19.70;;;5.40;99.90;;;;;;6184245;23;20043;-84
2022/03/04 11:26:31;;;;;;;26.10;19.67;;;5.50;99.90;;;;;;6184063;23;20024;-74
2022/03/04 11:28:59;;;;;;;27.42;20.05;;;5.50;99.90;;;;;;6211671;23;20031;-74
2022/03/04 11:31:25;;;;;;;;;;;5.50;99.90;;;;;;6186195;23;20040;-73
2022/03/04 11:34:00;;;;;;;26.55;20.17;;;5.50;99.90;;;;;;6184521;23;19919;-74
2022/03/04 11:36:32;;;;;;;24.63;19.23;;;5.60;99.90;;;;;;6185039;23;20087;-76
2022/03/04 11:39:18;;;;;;;23.88;19.05;;;5.80;99.90;;;;;;6185355;23;20024;-77
2022/03/04 11:41:47;;;;;;;25.73;19.48;;;5.80;99.90;;;;;;6183602;23;20027;-77
2022/03/04 11:44:17;;;;;;;27.48;19.95;;;5.90;99.90;;;;;;6185217;23;20047;-72
2022/03/04 11:46:55;;;;;;;23.85;18.83;;;6.00;99.90;;;;;;6210046;23;20013;-76
2022/03/04 11:49:38;;;;;;;24.55;19.10;;;6.10;99.90;;;;;;6184486;23;20788;-74
2022/03/04 11:52:11;;;;;;;25.05;19.58;;;6.10;99.90;;;;;;6184238;23;20024;-74
2022/03/04 11:54:38;;;;;;;24.30;18.83;;;6.20;99.90;;;;;;6184363;23;20044;-74
2022/03/04 11:57:24;;;;;;;23.95;18.52;;;6.30;99.90;;;;;;6211266;23;20050;-73
2022/03/04 11:59:57;;;;;;;23.98;18.20;;;6.40;99.90;;;;;;6211248;23;20042;-74
2022/03/04 12:02:47;;;;;;;27.08;19.42;;;6.50;99.90;;;;;;6184381;23;20025;-74
2022/03/04 12:05:19;;;;;;;25.38;19.10;;;6.60;99.90;;;;;;6184110;23;20437;-80
2022/03/04 12:07:45;;;;;;;25.30;18.75;;;6.70;99.90;;;;;;6210130;23;20028;-82
2022/03/04 12:10:13;;;;;;;24.60;18.90;;;6.80;99.90;;;;;;6183848;23;20388;-76
2022/03/04 12:12:39;;;;;;;;;;;6.80;99.90;;;;;;6186135;23;20017;-72
2022/03/04 12:15:17;;;;;;;47.47;20.70;;;6.90;99.90;;;;;;6210830;23;20447;-73
2022/03/04 12:18:05;;;;;;;26.70;19.92;;;6.90;99.90;;;;;;6185037;23;20020;-75
2022/03/04 12:20:39;;;;;;;32.00;18.83;;;7.00;99.90;;;;;;6184391;23;20449;-74
2022/03/04 12:23:16;;;;;;;22.88;17.45;;;7.10;99.90;;;;;;6210781;23;20027;-74
2022/03/04 12:25:54;;;;;;;25.17;18.48;;;7.20;98.40;;;;;;6211368;23;20013;-74
2022/03/04 12:28:21;;;;;;;26.88;18.60;;;7.30;98.50;;;;;;6185081;23;20051;-75
2022/03/04 12:31:14;;;;;;;23.47;18.20;;;7.30;95.90;;;;;;6183174;23;20016;-75
2022/03/04 12:33:41;;;;;;;24.27;17.25;;;7.40;95.60;;;;;;6211599;23;20232;-75
2022/03/04 12:36:12;;;;;;;22.83;16.80;;;7.50;97.70;;;;;;6184409;23;20025;-75
2022/03/04 12:38:46;;;;;;;22.40;16.63;;;7.60;95.00;;;;;;6210567;23;20110;-75